METAR stanice u blizini

 

LYBE - Beograd / Surčin, Srbija
Ažurirano: 09/12/2019 17:00
Vedro
Vedro
 Pravac vetra IJI
Vetar: IJI 13 km/h
Temperatura: 11°C
Tačka rose: 6°C
Vlažnost: 72%
Pritisak: 1008 hPa
Pregled: Vedro
Vidljivost: greater than 10 km
2019/12/09 16:00 LYBE 091600Z 11007KT CAVOK 11/06 Q1008 NOSIG
LYBT - Beograd / Batajnica, Srbija
Ažurirano: 09/12/2019 17:00
Vedro
Vedro
 Pravac vetra ISI
Vetar: ISI 11 km/h
Temperatura: 11°C
Tačka rose: 7°C
Vlažnost: 77%
Pritisak: 1008 hPa
Pregled: Vedro
Vidljivost: greater than 10 km
2019/12/09 16:00 LYBT 091600Z 07006KT CAVOK 11/07 Q1008 NOSIG
LYVR - Vršac, Srbija
Ažurirano: 09/12/2019 17:00
Vedro
Vedro
 Pravac vetra JI
Vetar: JI 22 km/h
Temperatura: 12°C
Tačka rose: 3°C
Vlažnost: 54%
Pritisak: 1009 hPa
Pregled: Vedro
Vidljivost: greater than 10 km
2019/12/09 16:00 LYVR 091600Z 14012KT CAVOK 12/03 Q1009 NOSIG
 
LYKV - Lađevci, Srbija
Ažurirano: 09/12/2019 17:00
Partly Cloudy
Partly Cloudy
 Pravac vetra varies
Vetar: varies 2 km/h
Temperatura: 4°C
Tačka rose: 4°C
Vlažnost: 100%
Pritisak: 1010 hPa
Oblaci: Partly Cloudy
Vidljivost: 7 km
2019/12/09 16:00 LYKV 091600Z VRB01KT 7000 NSC 04/04 Q1010 NOSIG
LYNI - Niš, Srbija
Ažurirano: 09/12/2019 17:00
Few Clouds
Few Clouds
 Pravac vetra varies
Vetar: varies 4 km/h
Temperatura: 8°C
Tačka rose: 4°C
Vlažnost: 76%
Pritisak: 1011 hPa
Oblaci: Few Clouds
Vidljivost: 10 km
Cloud details: Few Clouds 1524 m
2019/12/09 16:00 LYNI 091600Z VRB02KT 9999 FEW050 08/04 Q1011 TEMPO 4000 BR
BKPR - Priština, Srbija
Ažurirano: 09/12/2019 17:30
Magla, Oblačno
Magla, Oblačno
 Pravac vetra JJZ
Vetar: JJZ 7 km/h
Temperatura: 2°C
Osećaj hladnoće: 0°C
Tačka rose: 1°C
Vlažnost: 93%
Pritisak: 1012 hPa
Pregled: Magla
Oblaci: Oblačno
Vidljivost: 0 km
Cloud details: Oblačno 122 m
2019/12/09 16:30 BKPR 091630Z 20004KT 0400 R17/0900 FG OVC004 02/01 Q1012 NOSIG RMK 17190095
 
LHPP - Pecs / Pogany, Hungary
Ažurirano: 09/12/2019 16:45
Mostly Cloudy
Mostly Cloudy
 Pravac vetra ISI
Vetar: ISI 9 km/h
Temperatura: 6°C
Osećaj hladnoće: 4°C
Tačka rose: 5°C
Vlažnost: 93%
Pritisak: 1007 hPa
Oblaci: Mostly Cloudy
Vidljivost: 10 km
Cloud details: Mostly Cloudy 914 m
2019/12/09 15:45 LHPP 091545Z 07005KT 9999 BKN030 06/05 Q1007
LHUD - Szeged, Hungary
Ažurirano: 04/07/2019 01:45
NOT Current
Vedro
Vedro
 Pravac vetra S
Vetar: S 7 km/h
Temperatura: 18°C
Tačka rose: 13°C
Vlažnost: 73%
Pritisak: 1019 hPa
Pregled: Vedro
Vidljivost: greater than 10 km
2019/07/03 23:45 LHUD 032345Z 35004KT CAVOK 18/13 Q1019
LRTR - Timisoara, Romania
Ažurirano: 09/12/2019 17:00
Vedro
Vedro
 Pravac vetra IJI
Vetar: IJI 11 km/h
Temperatura: 7°C
Osećaj hladnoće: 5°C
Tačka rose: 6°C
Vlažnost: 93%
Pritisak: 1009 hPa
Pregled: Vedro
Vidljivost: greater than 10 km
2019/12/09 16:00 LRTR 091600Z 11006KT CAVOK 07/06 Q1009
 
LRCV - Craiova, Romania
Ažurirano: 09/12/2019 17:00
Vedro
Vedro
 Pravac vetra JI
Vetar: JI 7 km/h
Temperatura: 5°C
Osećaj hladnoće: 3°C
Tačka rose: 3°C
Vlažnost: 87%
Pritisak: 1010 hPa
Pregled: Vedro
Vidljivost: greater than 10 km
2019/12/09 16:00 LRCV 091600Z 13004KT CAVOK 05/03 Q1010
LBSF - Sofia, Bulgaria
Ažurirano: 09/12/2019 17:00
Freezing fog, Oblačno
Freezing fog, Oblačno
 Pravac vetra calm
Vetar: Tišina
Temperatura: -1°C
Tačka rose: -1°C
Vlažnost: 100%
Pritisak: 1012 hPa
Pregled: Freezing Fog
Oblaci: Oblačno
Vidljivost: 0 km
Cloud details: Oblačno 30 m
2019/12/09 16:00 LBSF 091600Z 00000KT 0300 R27/0400N FZFG VV001 M01/M01 Q1012 TEMPO 0500 FZFG
LWSK - Skoplje, Makedonija
Ažurirano: 09/12/2019 17:00
Oblačno
Oblačno
 Pravac vetra Z
Vetar: Z 2 km/h
Temperatura: 5°C
Tačka rose: 3°C
Vlažnost: 87%
Pritisak: 1014 hPa
Oblaci: Oblačno
Vidljivost: 10 km
Cloud details: Oblačno 305 m
2019/12/09 16:00 LWSK 091600Z 27001KT 9999 OVC010 05/03 Q1014 NOSIG
 
LYPG - Podgorica, Crna Gora
Ažurirano: 09/12/2019 17:00
Mostly Cloudy
Mostly Cloudy
 Pravac vetra SSI
Vetar: SSI 4 km/h
Temperatura: 10°C
Tačka rose: 8°C
Vlažnost: 88%
Pritisak: 1010 hPa
Oblaci: Mostly Cloudy
Vidljivost: 10 km
Cloud details: Partly Cloudy 1006 m
Mostly Cloudy 2438 m
2019/12/09 16:00 LYPG 091600Z 03002KT 9999 SCT033 BKN080 10/08 Q1010 NOSIG
LQSA - Sarajevo, Bosna i Hercegovina
Ažurirano: 09/12/2019 17:00
Mostly Cloudy
Mostly Cloudy
 Pravac vetra varies
Vetar: varies 2 km/h
Temperatura: 9°C
Tačka rose: 5°C
Vlažnost: 76%
Pritisak: 1007 hPa
Oblaci: Mostly Cloudy
Vidljivost: 10 km
Cloud details: Mostly Cloudy 1524 m
2019/12/09 16:00 LQSA 091600Z VRB01KT 9999 BKN050 09/05 Q1007 NOSIG
LDOS - Osijek, Hrvatksa
Ažurirano: 09/12/2019 17:00
Mostly Cloudy
Mostly Cloudy
 Pravac vetra S
Vetar: S 6 km/h
Temperatura: 7°C
Tačka rose: 6°C
Vlažnost: 93%
Pritisak: 1007 hPa
Oblaci: Mostly Cloudy
Vidljivost: 8 km
Cloud details: Mostly Cloudy 1311 m
2019/12/09 16:00 LDOS 091600Z 36003KT 8000 BKN043 07/06 Q1007